Time;durP1;ratioP1;P1;durP2;ratioP2;P2;SDS_P1;SDS_P2;PMS_P1;PMS_P2;Temp;Humidity;BMP_temperature;BMP_pressure;BME280_temperature;BME280_humidity;BME280_pressure;Samples;Min_cycle;Max_cycle;Signal;HPM_P1;HPM_P2
2021/01/04 00:00:09;;;;;;;7.60;2.40;;;;;;;3.06;73.41;101515.22;5159364;27;22195;-63
2021/01/04 00:02:46;;;;;;;4.87;1.90;;;;;;;3.00;73.85;101517.25;5158338;27;20431;-62
2021/01/04 00:05:16;;;;;;;13.80;4.67;;;;;;;3.17;74.00;101517.78;5159239;27;20474;-63
2021/01/04 00:08:14;;;;;;;20.93;5.47;;;;;;;3.18;73.18;101514.47;5157833;27;20894;-63
2021/01/04 00:11:04;;;;;;;11.33;3.07;;;;;;;3.17;73.38;101510.13;5142497;27;20459;-63
2021/01/04 00:13:36;;;;;;;10.63;3.63;;;;;;;3.20;72.25;101511.28;5157850;27;20475;-63
2021/01/04 00:16:08;;;;;;;8.87;3.40;;;;;;;3.19;72.61;101512.03;5159088;27;20475;-63
2021/01/04 00:18:43;;;;;;;11.43;3.20;;;;;;;3.27;72.06;101511.78;5157458;27;20539;-62
2021/01/04 00:21:17;;;;;;;14.53;5.03;;;;;;;3.32;72.49;101507.94;5158966;27;20508;-63
2021/01/04 00:23:57;;;;;;;22.93;7.40;;;;;;;3.23;71.40;101496.22;5156601;27;20793;-63
2021/01/04 00:26:27;;;;;;;7.37;3.20;;;;;;;3.19;71.58;101501.81;5158558;27;20490;-63
2021/01/04 00:28:53;;;;;;;8.40;3.63;;;;;;;3.23;72.85;101496.22;5156991;27;20483;-62
2021/01/04 00:31:24;;;;;;;10.83;2.23;;;;;;;3.22;71.36;101496.09;5159001;27;20494;-63
2021/01/04 00:33:52;;;;;;;9.73;3.60;;;;;;;3.21;71.12;101491.75;5157320;27;20471;-63
2021/01/04 00:36:23;;;;;;;13.77;4.80;;;;;;;3.24;72.29;101495.44;5158809;27;20471;-62
2021/01/04 00:39:24;;;;;;;9.03;2.07;;;;;;;3.23;71.39;101497.91;5156727;27;20517;-63
2021/01/04 00:41:59;;;;;;;14.90;4.07;;;;;;;3.32;71.41;101500.28;5143712;27;20447;-63
2021/01/04 00:44:32;;;;;;;19.63;5.30;;;;;;;3.44;72.37;101497.88;5156831;27;20498;-63
2021/01/04 00:47:04;;;;;;;11.70;3.97;;;;;;;3.34;71.40;101494.56;5158682;27;20453;-62
2021/01/04 00:49:32;;;;;;;15.30;5.30;;;;;;;3.28;70.86;101496.59;5156863;27;20845;-62
2021/01/04 00:52:04;;;;;;;7.93;3.30;;;;;;;3.24;70.82;101509.88;5158679;27;20494;-62
2021/01/04 00:54:54;;;;;;;6.20;2.67;;;;;;;3.23;70.84;101490.25;5156487;27;20471;-62
2021/01/04 00:57:36;;;;;;;7.93;2.70;;;;;;;3.32;70.92;101503.75;5158507;27;20486;-62
2021/01/04 01:00:12;;;;;;;12.30;3.40;;;;;;;3.23;70.45;101503.00;5157881;27;20459;-62
2021/01/04 01:02:54;;;;;;;5.33;2.20;;;;;;;3.30;70.58;101505.28;5156564;27;20806;-62
2021/01/04 01:05:24;;;;;;;9.30;3.10;;;;;;;3.36;71.40;101495.59;5157973;27;20520;-63
2021/01/04 01:08:14;;;;;;;6.57;2.07;;;;;;;3.42;71.81;101500.31;5156618;27;20985;-62
2021/01/04 01:10:44;;;;;;;10.03;3.10;;;;;;;3.39;70.55;101500.06;5158030;27;20497;-63
2021/01/04 01:13:20;;;;;;;9.37;2.53;;;;;;;3.53;72.58;101513.94;5156444;27;20506;-63
2021/01/04 01:15:54;;;;;;;6.37;1.90;;;;;;;3.51;70.69;101502.72;5157788;27;20474;-63
2021/01/04 01:18:34;;;;;;;5.80;2.20;;;;;;;3.45;71.76;101502.22;5156696;27;20479;-63
2021/01/04 01:21:04;;;;;;;5.97;2.10;;;;;;;3.40;71.37;101508.59;5157729;27;20832;-63
2021/01/04 01:23:32;;;;;;;11.00;2.60;;;;;;;3.37;71.71;101517.78;5156502;27;20475;-62
2021/01/04 01:26:14;;;;;;;5.10;2.00;;;;;;;3.34;72.26;101516.66;5157676;27;20562;-63
2021/01/04 01:29:03;;;;;;;10.80;2.77;;;;;;;3.41;71.09;101515.47;5156413;27;20479;-62
2021/01/04 01:31:45;;;;;;;9.17;2.67;;;;;;;3.32;71.07;101524.16;5157697;27;20455;-62
2021/01/04 01:34:17;;;;;;;3.97;1.67;;;;;;;3.31;71.58;101517.28;5155960;27;20475;-62
2021/01/04 01:37:15;;;;;;;10.13;2.87;;;;;;;3.40;71.33;101516.25;5157700;27;20450;-63
2021/01/04 01:40:01;;;;;;;7.40;2.03;;;;;;;3.37;71.36;101520.34;5155331;27;20475;-62
2021/01/04 01:43:19;;;;;;;7.77;2.50;;;;;;;3.28;71.15;101522.09;5157619;27;20459;-62
2021/01/04 01:45:51;;;;;;;7.00;2.10;;;;;;;3.28;70.65;101532.31;5073236;28;20457;-62
2021/01/04 01:48:26;;;;;;;5.63;2.00;;;;;;;3.30;70.78;101535.91;5151330;27;20829;-62
2021/01/04 01:50:54;;;;;;;9.87;2.27;;;;;;;3.32;70.91;101523.25;5157458;27;20884;-62
2021/01/04 01:53:26;;;;;;;4.73;2.37;;;;;;;3.43;70.48;101526.72;5156155;27;20502;-62
2021/01/04 01:56:15;;;;;;;11.40;2.53;;;;;;;3.41;70.98;101526.59;5157450;27;20524;-62
2021/01/04 01:59:04;;;;;;;4.13;1.90;;;;;;;3.32;70.86;101538.56;5153552;27;20585;-62
2021/01/04 02:01:37;;;;;;;7.57;2.00;;;;;;;3.34;71.05;101529.41;5157520;27;20433;-62
2021/01/04 02:04:07;;;;;;;5.97;2.27;;;;;;;3.32;71.36;101533.47;5155449;27;20529;-62
2021/01/04 02:06:51;;;;;;;4.87;1.90;;;;;;;3.25;70.96;101537.16;5157397;27;20466;-62
2021/01/04 02:09:21;;;;;;;12.13;3.83;;;;;;;3.33;70.83;101536.16;5155639;27;20475;-62
2021/01/04 02:11:54;;;;;;;6.23;2.20;;;;;;;3.22;70.70;101537.81;5157957;27;20546;-62
2021/01/04 02:14:29;;;;;;;7.93;1.93;;;;;;;3.32;71.14;101520.69;5155656;27;20475;-62
2021/01/04 02:17:06;;;;;;;6.10;1.80;;;;;;;3.36;70.80;101521.13;5161606;27;20482;-62
2021/01/04 02:19:38;;;;;;;3.23;1.30;;;;;;;3.31;70.52;101529.13;5159756;27;20958;-62
2021/01/04 02:22:25;;;;;;;11.50;2.10;;;;;;;3.33;70.98;101535.28;5161296;27;20429;-62
2021/01/04 02:24:53;;;;;;;4.73;1.80;;;;;;;3.21;71.48;101530.91;5159140;27;20551;-62
2021/01/04 02:27:24;;;;;;;5.50;2.00;;;;;;;3.34;71.39;101527.72;5161066;27;20550;-62
2021/01/04 02:29:50;;;;;;;9.40;2.67;;;;;;;3.35;71.42;101529.50;5159732;27;20823;-62
2021/01/04 02:32:17;;;;;;;5.00;2.37;;;;;;;3.37;71.48;101528.00;5160872;27;20457;-62
2021/01/04 02:34:47;;;;;;;6.60;1.70;;;;;;;3.32;71.86;101531.81;5154137;27;20506;-62
2021/01/04 02:37:15;;;;;;;6.60;2.10;;;;;;;3.23;72.61;101523.41;5160884;27;20543;-62
2021/01/04 02:39:46;;;;;;;3.93;1.67;;;;;;;3.21;72.88;101524.91;5159475;27;20482;-62
2021/01/04 02:42:17;;;;;;;6.23;1.90;;;;;;;3.29;73.09;101517.91;5161253;27;20455;-62
2021/01/04 02:44:44;;;;;;;4.97;1.93;;;;;;;3.30;73.99;101535.00;5159085;27;20498;-62
2021/01/04 02:47:31;;;;;;;6.67;2.10;;;;;;;3.18;74.20;101529.78;5160871;27;20461;-62
2021/01/04 02:50:08;;;;;;;4.00;1.87;;;;;;;3.30;75.56;101523.16;5160696;27;21007;-62
2021/01/04 02:53:13;;;;;;;7.03;2.60;;;;;;;3.07;74.38;101523.75;5159486;27;20549;-62
2021/01/04 02:55:47;;;;;;;5.73;2.10;;;;;;;3.15;74.29;101524.41;5112657;27;20978;-62
2021/01/04 02:58:23;;;;;;;8.33;2.57;;;;;;;3.15;74.45;101519.28;5159307;27;20566;-62
2021/01/04 03:00:55;;;;;;;6.97;1.80;;;;;;;3.15;74.46;101527.84;5160846;27;20541;-62
2021/01/04 03:03:23;;;;;;;4.87;1.90;;;;;;;3.16;74.97;101526.19;5158418;27;20518;-62
2021/01/04 03:05:49;;;;;;;16.00;2.97;;;;;;;3.01;74.61;101526.69;5160280;27;20540;-62
2021/01/04 03:08:16;;;;;;;5.73;2.07;;;;;;;3.04;74.86;101533.69;5158876;27;20485;-62
2021/01/04 03:10:43;;;;;;;7.77;1.67;;;;;;;3.02;74.99;101523.34;5160478;27;20482;-62
2021/01/04 03:13:20;;;;;;;8.13;2.00;;;;;;;3.10;75.49;101536.78;5158837;27;20928;-62
2021/01/04 03:15:55;;;;;;;7.10;1.60;;;;;;;3.23;75.35;101539.59;5160034;27;20479;-62
2021/01/04 03:18:27;;;;;;;7.30;2.33;;;;;;;2.99;77.33;101533.31;5158816;27;20478;-62
2021/01/04 03:20:54;;;;;;;9.23;2.13;;;;;;;2.97;78.51;101533.19;5160241;27;20764;-62
2021/01/04 03:23:21;;;;;;;4.13;1.40;;;;;;;2.89;79.28;101533.28;5158779;27;20485;-62
2021/01/04 03:25:49;;;;;;;8.13;2.10;;;;;;;2.66;80.39;101532.22;5159591;27;20507;-62
2021/01/04 03:28:23;;;;;;;5.00;1.53;;;;;;;2.64;80.60;101533.72;5158833;27;20967;-62
2021/01/04 03:30:50;;;;;;;4.70;1.40;;;;;;;2.62;81.05;101532.72;5160097;27;20478;-62
2021/01/04 03:33:17;;;;;;;8.30;2.70;;;;;;;2.48;81.94;101524.78;5158399;27;20475;-62
2021/01/04 03:35:43;;;;;;;4.57;2.10;;;;;;;2.50;82.70;101525.78;5159474;27;20566;-62
2021/01/04 03:38:11;;;;;;;4.67;1.50;;;;;;;2.49;82.19;101533.28;5158378;27;20454;-62
2021/01/04 03:40:37;;;;;;;9.40;1.63;;;;;;;2.51;82.24;101531.78;5159542;27;20855;-62
2021/01/04 03:43:04;;;;;;;4.37;1.37;;;;;;;2.49;83.39;101539.28;5158252;27;21013;-62
2021/01/04 03:45:32;;;;;;;3.10;1.17;;;;;;;2.59;83.54;101540.06;5159458;27;20947;-62
2021/01/04 03:47:58;;;;;;;7.80;1.37;;;;;;;2.42;84.40;101540.41;5157304;27;20946;-62
2021/01/04 03:50:25;;;;;;;6.70;1.80;;;;;;;2.43;84.99;101543.84;5159515;27;20471;-62
2021/01/04 03:52:52;;;;;;;7.20;1.50;;;;;;;2.46;84.99;101539.00;5158178;27;20475;-63
2021/01/04 03:55:19;;;;;;;5.00;1.67;;;;;;;2.40;84.61;101548.66;5159467;27;20573;-62
2021/01/04 03:57:46;;;;;;;9.47;1.57;;;;;;;2.23;85.25;101537.91;5157936;27;20447;-63
2021/01/04 04:00:14;;;;;;;8.30;1.60;;;;;;;2.23;85.82;101543.00;5159272;27;20485;-62
2021/01/04 04:02:43;;;;;;;3.57;1.50;;;;;;;2.39;85.32;101544.34;5158695;27;20744;-62
2021/01/04 04:05:11;;;;;;;4.47;1.10;;;;;;;2.27;85.16;101533.97;5159186;27;20482;-62
2021/01/04 04:07:38;;;;;;;4.50;1.33;;;;;;;2.26;85.04;101538.16;5156382;27;20454;-62
2021/01/04 04:10:05;;;;;;;3.00;1.30;;;;;;;2.23;85.04;101540.47;5159140;27;20881;-62
2021/01/04 04:12:33;;;;;;;4.97;1.30;;;;;;;2.21;85.44;101541.94;5157874;27;20752;-63
2021/01/04 04:15:00;;;;;;;5.67;1.73;;;;;;;2.31;85.09;101541.13;5158692;27;20483;-62
2021/01/04 04:17:27;;;;;;;4.13;1.57;;;;;;;2.14;85.27;101538.00;5159139;27;20461;-62
2021/01/04 04:19:54;;;;;;;2.90;1.00;;;;;;;1.98;86.37;101529.75;5157193;27;20471;-62
2021/01/04 04:22:20;;;;;;;8.03;1.83;;;;;;;1.78;87.12;101536.50;5159301;27;20425;-62
2021/01/04 04:24:47;;;;;;;2.57;1.13;;;;;;;1.72;87.77;101535.94;5157196;27;20517;-62
2021/01/04 04:27:15;;;;;;;3.37;1.13;;;;;;;1.86;87.53;101537.19;5159335;27;20538;-62
2021/01/04 04:29:43;;;;;;;3.30;1.60;;;;;;;1.68;88.49;101544.94;5157009;27;20469;-62
2021/01/04 04:32:10;;;;;;;3.77;1.73;;;;;;;1.73;88.33;101546.25;5158962;27;20447;-62
2021/01/04 04:34:37;;;;;;;4.90;1.73;;;;;;;1.77;88.29;101539.78;5157073;27;20559;-62
2021/01/04 04:37:05;;;;;;;5.73;2.60;;;;;;;1.86;88.16;101544.81;5158897;27;20475;-62
2021/01/04 04:39:32;;;;;;;5.55;1.90;;;;;;;1.81;88.09;101543.50;5156566;27;20524;-62
2021/01/04 04:42:01;;;;;;;5.00;1.40;;;;;;;1.72;88.04;101549.56;5159226;27;20516;-62
2021/01/04 04:44:30;;;;;;;2.43;1.43;;;;;;;1.63;88.10;101543.63;5157045;27;20485;-62
2021/01/04 04:47:06;;;;;;;2.40;1.30;;;;;;;1.58;88.14;101540.69;5158810;27;20943;-62
2021/01/04 04:50:06;;;;;;;6.47;1.77;;;;;;;1.72;88.34;101539.41;5157073;27;20511;-62
2021/01/04 04:52:46;;;;;;;2.10;1.23;;;;;;;1.51;88.65;101547.59;5150511;27;20198;-62
2021/01/04 04:55:17;;;;;;;3.43;1.60;;;;;;;1.47;88.71;101536.25;5158519;27;20471;-62
2021/01/04 04:58:02;;;;;;;3.80;1.57;;;;;;;1.34;89.14;101546.97;5157252;27;20782;-62
2021/01/04 05:00:50;;;;;;;3.90;2.10;;;;;;;1.44;89.48;101544.50;5158170;27;20437;-62
2021/01/04 05:03:27;;;;;;;3.40;1.90;;;;;;;1.53;89.49;101547.00;5156761;27;20752;-62
2021/01/04 05:06:00;;;;;;;4.07;1.83;;;;;;;1.55;88.77;101552.22;5157320;27;20566;-62
2021/01/04 05:08:46;;;;;;;4.13;2.00;;;;;;;1.60;88.79;101549.34;5155916;27;20537;-62
2021/01/04 05:11:15;;;;;;;4.80;2.13;;;;;;;1.53;89.00;101552.09;5157490;27;20513;-62
2021/01/04 05:13:45;;;;;;;5.50;2.10;;;;;;;1.40;89.47;101550.09;5155834;27;20475;-62
2021/01/04 05:16:14;;;;;;;3.55;1.90;;;;;;;1.40;89.52;101551.72;5157424;27;20552;-62
2021/01/04 05:18:50;;;;;;;4.63;2.47;;;;;;;1.33;90.01;101553.69;5155635;27;20237;-62
2021/01/04 05:21:42;;;;;;;6.10;2.20;;;;;;;1.36;89.95;101553.09;5157418;27;20234;-62
2021/01/04 05:24:44;;;;;;;5.82;2.05;;;;;;;1.27;90.08;101550.59;5155286;27;20309;-62
2021/01/04 05:27:43;;;;;;;6.00;2.40;;;;;;;1.27;90.58;101549.72;5157341;27;20197;-62
2021/01/04 05:30:35;;;;;;;3.80;1.77;;;;;;;1.20;90.44;101555.88;5156812;27;20973;-63
2021/01/04 05:33:38;;;;;;;4.35;2.33;;;;;;;1.29;90.71;101550.75;5155628;27;20774;-63
2021/01/04 05:36:14;;;;;;;4.70;2.55;;;;;;;1.15;90.21;101560.53;5156762;27;20419;-62
2021/01/04 05:38:46;;;;;;;3.83;2.13;;;;;;;1.24;90.04;101557.03;5154976;27;20233;-62
2021/01/04 05:41:59;;;;;;;5.05;2.13;;;;;;;1.34;90.09;101562.25;5157333;27;20194;-62
2021/01/04 05:45:00;;;;;;;4.43;2.10;;;;;;;1.37;89.54;101559.09;5154976;27;20243;-62
2021/01/04 05:47:36;;;;;;;4.23;2.10;;;;;;;1.44;89.65;101562.31;5142536;27;20426;-62
2021/01/04 05:50:14;;;;;;;3.78;2.28;;;;;;;1.43;89.48;101564.72;5155167;27;20531;-62
2021/01/04 05:52:40;;;;;;;26.63;10.60;;;;;;;1.50;89.94;101566.16;5155037;27;20240;-62
2021/01/04 05:55:08;;;;;;;9.05;4.53;;;;;;;1.40;89.91;101561.91;5156125;27;20298;-62
2021/01/04 05:57:46;;;;;;;14.53;6.00;;;;;;;1.19;90.06;101569.34;5155451;27;20285;-62
2021/01/04 06:00:14;;;;;;;21.87;5.30;;;;;;;1.17;90.20;101570.81;5136524;27;576095;-62
2021/01/04 06:02:41;;;;;;;17.75;8.10;;;;;;;1.20;91.05;101566.94;5156500;27;20202;-62
2021/01/04 06:05:10;;;;;;;6.50;3.40;;;;;;;1.20;90.37;101572.03;5157260;27;20253;-62
2021/01/04 06:07:38;;;;;;;6.28;2.58;;;;;;;1.12;90.20;101572.06;5156393;27;20764;-62
2021/01/04 06:10:06;;;;;;;6.95;3.25;;;;;;;1.04;90.43;101573.88;5157385;27;20324;-62
2021/01/04 06:12:37;;;;;;;10.18;3.58;;;;;;;1.20;90.58;101574.56;5155519;27;20194;-62
2021/01/04 06:15:06;;;;;;;6.17;2.90;;;;;;;1.01;90.25;101563.41;5157224;27;20587;-62
2021/01/04 06:17:35;;;;;;;4.80;2.40;;;;;;;1.08;90.30;101573.44;5155963;27;20968;-62
2021/01/04 06:20:12;;;;;;;7.53;2.83;;;;;;;0.87;90.54;101577.41;5157150;27;20305;-62
2021/01/04 06:22:41;;;;;;;9.73;4.75;;;;;;;1.06;91.05;101574.91;5156227;27;20490;-62
2021/01/04 06:25:09;;;;;;;5.53;2.55;;;;;;;1.07;90.41;101569.06;5157115;27;20232;-62
2021/01/04 06:27:38;;;;;;;4.40;2.40;;;;;;;0.99;90.33;101572.56;5156027;27;20281;-62
2021/01/04 06:30:22;;;;;;;4.45;2.40;;;;;;;0.90;90.54;101581.13;5157052;27;20238;-62
2021/01/04 06:32:49;;;;;;;7.40;2.63;;;;;;;0.80;90.80;101573.38;5155371;27;20242;-62
2021/01/04 06:35:23;;;;;;;6.13;2.40;;;;;;;0.96;90.38;101573.16;5157221;27;20254;-62
2021/01/04 06:37:50;;;;;;;3.42;1.88;;;;;;;0.78;90.45;101570.69;5155805;27;20238;-62
2021/01/04 06:40:30;;;;;;;5.55;2.80;;;;;;;0.83;90.61;101573.69;5157082;27;20211;-62
2021/01/04 06:42:57;;;;;;;4.20;2.60;;;;;;;0.90;90.96;101570.97;5155816;27;20225;-62
2021/01/04 06:45:30;;;;;;;11.27;3.38;;;;;;;1.05;90.17;101566.41;5157129;27;20249;-62
2021/01/04 06:48:05;;;;;;;4.53;2.67;;;;;;;0.98;90.02;101570.78;5155557;27;20229;-62
2021/01/04 06:50:38;;;;;;;7.30;2.92;;;;;;;0.92;89.96;101577.06;5157339;27;20221;-62
2021/01/04 06:53:27;;;;;;;5.22;2.55;;;;;;;0.93;90.69;101580.53;5155601;27;20649;-62
2021/01/04 06:56:36;;;;;;;6.60;3.20;;;;;;;0.90;90.47;101578.59;5156946;27;20228;-62
2021/01/04 06:59:25;;;;;;;6.30;3.00;;;;;;;0.77;91.19;101583.25;5155973;27;20257;-62
2021/01/04 07:02:11;;;;;;;7.97;3.08;;;;;;;0.72;91.07;101584.47;5157060;27;20463;-62
2021/01/04 07:05:10;;;;;;;8.15;2.60;;;;;;;0.61;91.56;101583.47;5158821;27;20544;-62
2021/01/04 07:07:50;;;;;;;5.75;2.28;;;;;;;0.56;90.72;101588.06;5115501;27;20195;-62
2021/01/04 07:10:35;;;;;;;4.90;2.40;;;;;;;0.59;91.19;101588.38;5160526;27;20222;-62
2021/01/04 07:13:31;;;;;;;5.82;2.25;;;;;;;0.64;91.49;101593.88;5159270;27;20236;-62
2021/01/04 07:16:10;;;;;;;5.10;2.90;;;;;;;0.70;91.38;101597.00;5115255;27;20218;-62
2021/01/04 07:18:48;;;;;;;7.55;2.67;;;;;;;0.77;91.10;101593.44;5158863;27;20236;-62
2021/01/04 07:21:27;;;;;;;5.00;2.90;;;;;;;0.92;90.48;101599.06;5160757;27;20202;-62
2021/01/04 07:24:22;;;;;;;6.22;3.40;;;;;;;0.99;90.74;101603.06;5158612;27;20321;-62
2021/01/04 07:27:02;;;;;;;4.88;2.53;;;;;;;0.65;90.92;101599.13;5160265;27;20226;-62
2021/01/04 07:29:42;;;;;;;3.28;1.70;;;;;;;0.48;90.69;101604.22;5158852;27;20233;-62
2021/01/04 07:32:12;;;;;;;3.70;2.07;;;;;;;0.60;91.08;101607.94;5160061;27;20198;-62
2021/01/04 07:34:42;;;;;;;6.32;2.92;;;;;;;0.65;91.01;101614.38;5158308;27;20562;-62
2021/01/04 07:37:42;;;;;;;11.77;4.45;;;;;;;0.80;90.93;101619.09;5159905;27;20206;-62
2021/01/04 07:40:26;;;;;;;4.97;2.47;;;;;;;0.52;90.90;101616.50;5159783;27;20222;-62
2021/01/04 07:43:44;;;;;;;4.95;2.50;;;;;;;0.56;91.13;101621.09;5158625;27;20226;-62
2021/01/04 07:46:49;;;;;;;8.13;2.92;;;;;;;0.49;90.92;101612.00;5159794;27;20530;-61
2021/01/04 07:49:34;;;;;;;4.30;2.40;;;;;;;0.53;91.00;101618.28;5158257;27;20238;-62
2021/01/04 07:52:18;;;;;;;7.10;2.40;;;;;;;0.46;90.66;101615.91;5159988;27;20920;-62
2021/01/04 07:55:10;;;;;;;6.35;3.28;;;;;;;0.70;91.20;101621.50;5157675;27;20238;-62
2021/01/04 07:58:12;;;;;;;5.50;2.78;;;;;;;0.46;90.84;101615.91;5158304;27;20538;-62
2021/01/04 08:00:47;;;;;;;4.97;2.63;;;;;;;0.39;91.56;101616.94;5159544;27;20296;-61
2021/01/04 08:03:51;;;;;;;4.97;2.75;;;;;;;0.44;91.13;101613.19;5157802;27;20314;-62
2021/01/04 08:06:49;;;;;;;8.02;3.17;;;;;;;0.64;90.88;101617.66;5158572;27;20224;-62
2021/01/04 08:09:26;;;;;;;4.60;2.20;;;;;;;0.50;91.28;101620.50;5158004;27;20234;-62
2021/01/04 08:12:49;;;;;;;4.40;2.88;;;;;;;0.44;90.94;101622.44;5159281;27;20296;-62
2021/01/04 08:15:31;;;;;;;6.65;3.72;;;;;;;0.47;91.70;101620.22;5040747;28;20630;-62
2021/01/04 08:18:02;;;;;;;5.57;2.20;;;;;;;0.59;90.88;101620.50;5157924;27;20240;-62
2021/01/04 08:20:29;;;;;;;9.43;2.50;;;;;;;0.51;91.00;101627.41;5159053;27;20310;-61
2021/01/04 08:23:36;;;;;;;6.55;2.63;;;;;;;0.47;91.45;101622.75;5157686;27;20321;-62
2021/01/04 08:26:24;;;;;;;4.95;2.35;;;;;;;0.55;91.44;101620.97;5074983;28;20223;-62
2021/01/04 08:29:04;;;;;;;7.35;2.72;;;;;;;0.47;91.06;101618.56;5073754;28;20327;-61
2021/01/04 08:31:41;;;;;;;7.32;3.05;;;;;;;0.47;90.99;101627.84;5136539;27;20253;-61
2021/01/04 08:34:11;;;;;;;8.43;3.15;;;;;;;0.48;91.24;101624.53;5157014;27;20518;-62
2021/01/04 08:36:52;;;;;;;5.00;2.15;;;;;;;0.42;91.06;101626.50;5158593;27;20222;-62
2021/01/04 08:39:31;;;;;;;10.57;3.10;;;;;;;0.57;91.16;101625.44;5157169;27;20328;-62
2021/01/04 08:42:28;;;;;;;5.40;2.42;;;;;;;0.60;90.69;101629.91;5159154;27;20308;-62
2021/01/04 08:45:05;;;;;;;8.27;2.70;;;;;;;0.50;90.65;101628.13;5154622;27;20233;-62
2021/01/04 08:47:35;;;;;;;3.47;2.28;;;;;;;0.52;91.19;101626.66;5157273;27;20198;-62
2021/01/04 08:50:15;;;;;;;5.97;3.00;;;;;;;0.40;91.21;101623.78;5158641;27;20265;-61
2021/01/04 08:52:46;;;;;;;7.50;3.83;;;;;;;0.57;91.52;101630.53;5157215;27;20503;-62
2021/01/04 08:55:25;;;;;;;4.78;2.38;;;;;;;0.50;90.48;101623.94;5158353;27;20532;-62
2021/01/04 08:57:53;;;;;;;9.38;2.67;;;;;;;0.50;90.68;101633.19;5156971;27;20257;-61
2021/01/04 09:00:23;;;;;;;4.50;2.20;;;;;;;0.55;91.46;101626.94;5158573;27;20206;-61
2021/01/04 09:02:50;;;;;;;6.22;3.15;;;;;;;0.55;91.09;101626.03;5156784;27;21339;-62
2021/01/04 09:05:30;;;;;;;4.38;2.42;;;;;;;0.47;90.36;101623.63;5158078;27;20214;-62
2021/01/04 09:07:57;;;;;;;5.82;2.20;;;;;;;0.59;90.67;101630.66;5157002;27;20248;-62
2021/01/04 09:10:26;;;;;;;4.03;2.10;;;;;;;0.53;90.75;101628.44;5158356;27;20225;-62
2021/01/04 09:13:08;;;;;;;5.97;2.55;;;;;;;0.62;90.60;101626.75;5156660;27;20232;-62
2021/01/04 09:15:36;;;;;;;4.70;2.33;;;;;;;0.68;90.14;101631.56;5158223;27;20214;-61
2021/01/04 09:18:22;;;;;;;5.25;2.47;;;;;;;0.63;90.38;101631.13;5156909;27;20225;-62
2021/01/04 09:20:53;;;;;;;4.28;1.65;;;;;;;0.66;90.05;101620.31;5158200;27;20285;-62
2021/01/04 09:23:29;;;;;;;3.60;2.30;;;;;;;0.70;90.23;101626.59;5156352;27;20229;-61
2021/01/04 09:26:08;;;;;;;5.15;2.50;;;;;;;0.52;90.09;101636.81;5157710;27;20626;-61
2021/01/04 09:28:38;;;;;;;6.22;2.47;;;;;;;0.61;91.05;101630.06;5156478;27;20325;-61
2021/01/04 09:31:05;;;;;;;5.60;2.13;;;;;;;0.47;90.52;101636.34;5157958;27;20249;-61
2021/01/04 09:33:32;;;;;;;3.90;2.30;;;;;;;0.45;90.86;101640.38;5156460;27;20333;-61
2021/01/04 09:36:03;;;;;;;4.15;2.33;;;;;;;0.57;90.70;101625.44;5157113;27;20588;-61
2021/01/04 09:38:47;;;;;;;3.58;2.00;;;;;;;0.53;90.40;101633.50;5156603;27;20330;-61
2021/01/04 09:41:14;;;;;;;2.83;1.80;;;;;;;0.49;90.17;101634.88;5157828;27;20703;-61
2021/01/04 09:43:42;;;;;;;6.10;2.10;;;;;;;0.55;90.66;101633.66;5156461;27;20698;-62
2021/01/04 09:46:22;;;;;;;7.22;2.40;;;;;;;0.57;90.90;101630.53;5157491;27;20642;-61
2021/01/04 09:48:55;;;;;;;7.18;2.00;;;;;;;0.50;90.48;101633.19;5156403;27;20234;-62
2021/01/04 09:51:31;;;;;;;3.75;1.83;;;;;;;0.51;90.44;101629.94;5157646;27;20635;-62
2021/01/04 09:54:01;;;;;;;3.58;2.25;;;;;;;0.65;89.75;101626.16;5155894;27;20273;-62
2021/01/04 09:56:30;;;;;;;7.03;2.83;;;;;;;0.66;89.88;101626.31;5157546;27;20250;-61
2021/01/04 09:59:03;;;;;;;3.20;1.83;;;;;;;0.45;91.04;101634.44;5155960;27;20516;-61
2021/01/04 10:01:31;;;;;;;4.55;2.08;;;;;;;0.57;90.75;101629.63;5157453;27;20208;-61
2021/01/04 10:04:00;;;;;;;5.63;2.08;;;;;;;0.52;90.60;101624.97;5155711;27;20234;-62
2021/01/04 10:06:34;;;;;;;5.93;2.35;;;;;;;0.52;90.81;101626.66;5157781;27;20250;-62
2021/01/04 10:09:03;;;;;;;4.07;2.00;;;;;;;0.56;90.51;101628.72;5155895;27;20296;-62
2021/01/04 10:11:31;;;;;;;3.67;1.50;;;;;;;0.66;90.50;101626.31;5157141;27;20249;-61
2021/01/04 10:14:05;;;;;;;6.53;1.80;;;;;;;0.70;90.15;101626.59;5153672;27;20238;-62
2021/01/04 10:16:33;;;;;;;3.92;2.40;;;;;;;0.71;90.21;101620.78;5157798;27;20324;-61
2021/01/04 10:19:04;;;;;;;3.97;2.10;;;;;;;0.70;89.71;101624.06;5155930;27;20253;-61
2021/01/04 10:21:35;;;;;;;4.80;1.90;;;;;;;0.64;89.53;101620.22;5157455;27;20504;-61
2021/01/04 10:24:03;;;;;;;5.40;1.63;;;;;;;0.67;90.49;101615.41;5155529;27;20319;-61
2021/01/04 10:26:43;;;;;;;4.43;1.80;;;;;;;0.61;90.19;101627.50;5157326;27;20534;-61
2021/01/04 10:29:14;;;;;;;3.15;1.80;;;;;;;0.61;90.27;101617.34;5155846;27;20554;-62
2021/01/04 10:31:41;;;;;;;6.35;2.63;;;;;;;0.81;90.74;101618.34;5157446;27;20248;-62
2021/01/04 10:34:10;;;;;;;6.25;2.60;;;;;;;0.69;89.90;101618.09;5155558;27;20321;-61
2021/01/04 10:36:38;;;;;;;4.25;2.25;;;;;;;0.71;90.23;101613.16;5159238;27;20228;-61
2021/01/04 10:39:08;;;;;;;9.00;2.47;;;;;;;0.80;90.23;101608.94;5159595;27;20508;-62
2021/01/04 10:41:35;;;;;;;6.95;2.75;;;;;;;0.89;90.21;101614.00;5161223;27;20205;-61
2021/01/04 10:44:07;;;;;;;7.73;3.00;;;;;;;0.96;90.35;101606.22;5159331;27;20234;-61
2021/01/04 10:46:36;;;;;;;10.57;4.57;;;;;;;1.05;89.56;101607.09;5160684;27;20470;-61
2021/01/04 10:49:05;;;;;;;5.50;1.80;;;;;;;0.97;89.15;101602.03;5159501;27;20919;-61
2021/01/04 10:51:33;;;;;;;6.85;2.70;;;;;;;1.01;89.56;101596.47;5161074;27;20222;-62
2021/01/04 10:54:00;;;;;;;34.35;13.45;;;;;;;1.12;90.33;101595.81;5159006;27;20255;-62
2021/01/04 10:56:39;;;;;;;11.77;4.18;;;;;;;1.08;89.82;101591.22;5159340;27;20218;-62
2021/01/04 10:59:19;;;;;;;3.77;2.20;;;;;;;0.88;89.07;101592.75;5159436;27;20240;-62
2021/01/04 11:01:49;;;;;;;11.35;4.78;;;;;;;1.03;89.76;101590.78;5160811;27;20486;-61
2021/01/04 11:04:18;;;;;;;15.63;8.23;;;;;;;1.14;89.70;101581.63;5158903;27;20316;-61
2021/01/04 11:06:46;;;;;;;10.40;4.20;;;;;;;1.12;89.57;101588.19;5160716;27;20558;-61
2021/01/04 11:09:16;;;;;;;4.10;2.43;;;;;;;1.03;89.27;101590.78;5158867;27;20912;-61
2021/01/04 11:11:45;;;;;;;6.13;3.00;;;;;;;1.08;89.64;101586.16;5160691;27;20454;-62
2021/01/04 11:14:17;;;;;;;14.05;7.38;;;;;;;1.09;89.55;101587.94;5158865;27;20467;-62
2021/01/04 11:17:10;;;;;;;6.80;3.47;;;;;;;1.25;89.60;101581.72;5160604;27;20224;-61
2021/01/04 11:19:38;;;;;;;7.70;2.80;;;;;;;1.01;89.20;101574.50;5158944;27;20476;-62
2021/01/04 11:22:09;;;;;;;5.90;2.13;;;;;;;0.97;89.43;101566.44;5160440;27;20539;-61
2021/01/04 11:24:36;;;;;;;4.57;2.60;;;;;;;0.98;89.44;101568.22;5158583;27;20482;-62
2021/01/04 11:27:03;;;;;;;3.20;1.90;;;;;;;0.82;89.42;101565.91;5160417;27;20860;-61
2021/01/04 11:29:29;;;;;;;4.50;1.73;;;;;;;0.97;89.73;101566.44;5158643;27;20471;-61
2021/01/04 11:31:56;;;;;;;5.30;2.70;;;;;;;0.99;89.77;101564.94;5160025;27;20639;-61
2021/01/04 11:34:23;;;;;;;8.18;3.17;;;;;;;1.10;89.23;101558.31;5158298;27;20479;-61
2021/01/04 11:36:50;;;;;;;6.70;3.22;;;;;;;1.21;89.25;101556.03;5159956;27;20261;-61
2021/01/04 11:39:19;;;;;;;5.47;2.40;;;;;;;1.17;89.36;101546.31;5158005;27;20225;-61
2021/01/04 11:41:46;;;;;;;3.53;2.37;;;;;;;1.10;89.25;101546.50;5160385;27;20771;-61
2021/01/04 11:44:12;;;;;;;6.00;2.73;;;;;;;1.25;90.05;101546.13;5158178;27;20475;-61
2021/01/04 11:46:39;;;;;;;9.10;2.60;;;;;;;1.14;89.55;101546.03;5160069;27;20591;-61
2021/01/04 11:49:07;;;;;;;6.63;2.50;;;;;;;1.07;89.41;101543.66;5158263;27;20483;-61
2021/01/04 11:51:34;;;;;;;9.37;2.93;;;;;;;1.13;89.70;101541.69;5159763;27;20489;-61
2021/01/04 11:54:03;;;;;;;5.07;2.30;;;;;;;1.21;89.96;101539.84;5157558;27;20560;-61
2021/01/04 11:56:31;;;;;;;6.80;2.47;;;;;;;0.96;90.02;101541.78;5159750;27;20477;-61
2021/01/04 11:58:58;;;;;;;10.53;2.73;;;;;;;1.05;90.20;101546.09;5158351;27;20507;-61
2021/01/04 12:01:25;;;;;;;8.03;2.80;;;;;;;1.03;90.90;101547.56;5157708;27;20514;-62
2021/01/04 12:03:52;;;;;;;15.73;3.57;;;;;;;1.20;89.98;101538.97;5157468;27;20464;-62
2021/01/04 12:06:19;;;;;;;6.30;2.53;;;;;;;1.06;90.63;101539.34;5159003;27;20442;-61
2021/01/04 12:08:46;;;;;;;7.10;3.08;;;;;;;1.04;90.70;101543.38;5157785;27;20464;-61